createdAt,value
2018-09-09T00:00:34.645Z,85.84
2018-09-09T00:03:07.589Z,85.97
2018-09-09T00:05:40.847Z,85.87
2018-09-09T00:08:14.345Z,85.81
2018-09-09T00:10:47.332Z,85.86
2018-09-09T00:13:21.399Z,86.02
2018-09-09T00:15:54.745Z,85.88
2018-09-09T00:18:27.432Z,86.00
2018-09-09T00:21:01.413Z,85.92
2018-09-09T00:23:34.012Z,85.95
2018-09-09T00:26:06.749Z,85.92
2018-09-09T00:28:40.605Z,85.92
2018-09-09T00:31:13.161Z,85.95
2018-09-09T00:33:46.155Z,86.02
2018-09-09T00:36:19.100Z,86.07
2018-09-09T00:38:51.732Z,86.00
2018-09-09T00:41:24.322Z,85.86
2018-09-09T00:43:57.325Z,85.74
2018-09-09T00:46:29.933Z,85.83
2018-09-09T00:49:08.424Z,85.91
2018-09-09T00:51:46.627Z,85.80
2018-09-09T00:54:19.252Z,85.68
2018-09-09T00:56:52.224Z,85.43
2018-09-09T00:59:25.067Z,85.32
2018-09-09T01:01:58.587Z,85.39
2018-09-09T01:04:32.544Z,85.61
2018-09-09T01:07:05.093Z,85.70
2018-09-09T01:09:37.657Z,85.87
2018-09-09T01:12:14.272Z,86.04
2018-09-09T01:14:47.140Z,85.85
2018-09-09T01:17:19.720Z,85.41
2018-09-09T01:19:52.542Z,85.25
2018-09-09T01:22:25.264Z,85.24
2018-09-09T01:24:57.872Z,85.15
2018-09-09T01:27:31.861Z,85.08
2018-09-09T01:30:06.093Z,84.82
2018-09-09T01:32:38.531Z,85.10
2018-09-09T01:35:11.343Z,85.35
2018-09-09T01:37:44.108Z,85.61
2018-09-09T01:40:17.158Z,85.73
2018-09-09T01:42:50.524Z,85.79
2018-09-09T01:45:23.150Z,85.83
2018-09-09T01:47:55.726Z,85.44
2018-09-09T01:50:28.684Z,85.05
2018-09-09T01:53:01.844Z,84.91
2018-09-09T01:55:35.081Z,84.83
2018-09-09T01:58:10.054Z,84.73
2018-09-09T02:00:42.672Z,84.71
2018-09-09T02:03:15.177Z,84.71
2018-09-09T02:05:49.074Z,84.40
2018-09-09T02:08:21.620Z,83.59
2018-09-09T02:10:59.146Z,81.86
2018-09-09T02:13:32.143Z,80.22
2018-09-09T02:16:04.916Z,78.45
2018-09-09T02:18:38.538Z,77.42
2018-09-09T02:21:11.149Z,76.74
2018-09-09T02:23:43.628Z,75.68
2018-09-09T02:26:16.548Z,75.33
2018-09-09T02:28:49.218Z,75.09
2018-09-09T02:31:21.996Z,75.07
2018-09-09T02:33:54.777Z,74.93
2018-09-09T02:36:27.325Z,74.97
2018-09-09T02:39:00.679Z,74.85
2018-09-09T02:41:33.527Z,74.69
2018-09-09T02:44:07.337Z,74.56
2018-09-09T02:46:40.563Z,74.06
2018-09-09T02:49:15.298Z,73.96
2018-09-09T02:51:47.753Z,73.61
2018-09-09T02:54:21.245Z,73.11
2018-09-09T02:56:54.176Z,73.03
2018-09-09T02:59:26.821Z,73.12
2018-09-09T03:01:59.567Z,72.77
2018-09-09T03:04:32.843Z,72.67
2018-09-09T03:07:05.528Z,72.41
2018-09-09T03:09:38.124Z,71.94
2018-09-09T03:12:11.075Z,71.96
2018-09-09T03:14:43.629Z,71.94
2018-09-09T03:17:16.236Z,71.97
2018-09-09T03:19:50.275Z,71.76
2018-09-09T03:22:23.065Z,71.77
2018-09-09T03:24:55.645Z,71.40
2018-09-09T03:27:30.688Z,71.35
2018-09-09T03:30:04.742Z,71.23
2018-09-09T03:32:37.255Z,70.99
2018-09-09T03:35:10.092Z,70.71
2018-09-09T03:37:42.561Z,70.39
2018-09-09T03:40:15.779Z,70.18
2018-09-09T03:42:48.765Z,70.07
2018-09-09T03:45:21.333Z,69.69
2018-09-09T03:47:53.924Z,69.51
2018-09-09T03:50:26.782Z,69.51
2018-09-09T03:52:59.523Z,69.55
2018-09-09T03:55:32.254Z,69.64
2018-09-09T03:58:05.144Z,69.62
2018-09-09T04:00:38.736Z,69.55
2018-09-09T04:03:11.680Z,69.62
2018-09-09T04:05:44.838Z,69.68
2018-09-09T04:08:17.365Z,69.60
2018-09-09T04:10:50.248Z,69.53
2018-09-09T04:13:25.504Z,69.54
2018-09-09T04:15:59.043Z,69.41
2018-09-09T04:18:32.424Z,69.43
2018-09-09T04:21:06.857Z,69.42
2018-09-09T04:23:39.704Z,69.45
2018-09-09T04:26:12.208Z,69.31
2018-09-09T04:28:45.237Z,69.24
2018-09-09T04:31:18.065Z,69.14
2018-09-09T04:33:50.566Z,69.04
2018-09-09T04:36:23.341Z,68.65
2018-09-09T04:38:55.931Z,68.56
2018-09-09T04:41:28.495Z,68.39
2018-09-09T04:44:01.511Z,68.29
2018-09-09T04:46:34.153Z,68.05
2018-09-09T04:49:08.272Z,68.05
2018-09-09T04:51:42.157Z,67.89
2018-09-09T04:54:16.482Z,67.79
2018-09-09T04:56:49.287Z,67.79
2018-09-09T04:59:22.576Z,67.78
2018-09-09T05:01:55.247Z,67.92
2018-09-09T05:04:28.430Z,68.02
2018-09-09T05:07:01.623Z,68.24
2018-09-09T05:09:34.082Z,68.23
2018-09-09T05:12:06.816Z,68.45
2018-09-09T05:14:39.912Z,68.61
2018-09-09T05:17:12.599Z,68.80
2018-09-09T05:19:45.304Z,68.97
2018-09-09T05:22:18.083Z,68.10
2018-09-09T05:24:50.562Z,67.98
2018-09-09T05:27:24.005Z,67.83
2018-09-09T05:29:58.467Z,67.58
2018-09-09T05:32:31.265Z,67.65
2018-09-09T05:35:03.904Z,67.39
2018-09-09T05:37:36.842Z,67.09
2018-09-09T05:40:09.394Z,66.98
2018-09-09T05:42:42.204Z,66.72
2018-09-09T05:45:16.821Z,66.44
2018-09-09T05:47:49.571Z,65.84
2018-09-09T05:50:22.157Z,65.93
2018-09-09T05:52:57.307Z,65.96
2018-09-09T05:55:29.724Z,66.11
2018-09-09T05:58:02.355Z,66.20
2018-09-09T06:00:35.323Z,66.25
2018-09-09T06:03:08.392Z,66.31
2018-09-09T06:05:41.129Z,66.27
2018-09-09T06:08:14.665Z,66.22
2018-09-09T06:10:52.635Z,66.30
2018-09-09T06:13:26.172Z,66.19
2018-09-09T06:15:59.429Z,66.15
2018-09-09T06:18:32.102Z,65.80
2018-09-09T06:21:04.839Z,65.83
2018-09-09T06:23:37.776Z,65.66
2018-09-09T06:26:10.323Z,65.16
2018-09-09T06:28:42.868Z,65.12
2018-09-09T06:31:17.126Z,64.78
2018-09-09T06:33:49.667Z,64.38
2018-09-09T06:36:24.264Z,64.40
2018-09-09T06:38:57.101Z,64.32
2018-09-09T06:41:30.141Z,64.11
2018-09-09T06:44:02.676Z,63.74
2018-09-09T06:46:37.712Z,63.75
2018-09-09T06:49:10.268Z,63.25
2018-09-09T06:51:42.893Z,63.35
2018-09-09T06:54:15.793Z,62.98
2018-09-09T06:56:48.404Z,62.78
2018-09-09T06:59:20.934Z,62.63
2018-09-09T07:01:56.318Z,62.44
2018-09-09T07:04:28.863Z,62.37
2018-09-09T07:07:01.378Z,62.31
2018-09-09T07:09:35.281Z,61.90
2018-09-09T07:12:08.692Z,61.63
2018-09-09T07:14:43.386Z,61.45
2018-09-09T07:17:16.422Z,61.11
2018-09-09T07:19:49.484Z,60.95
2018-09-09T07:22:22.987Z,60.89
2018-09-09T07:24:57.261Z,60.60
2018-09-09T07:27:29.824Z,60.68
2018-09-09T07:30:05.021Z,60.67
2018-09-09T07:32:37.779Z,60.33
2018-09-09T07:35:10.593Z,60.23
2018-09-09T07:37:45.423Z,59.91
2018-09-09T07:40:18.058Z,60.15
2018-09-09T07:42:57.925Z,59.26
2018-09-09T07:45:31.606Z,58.82
2018-09-09T07:48:05.502Z,58.37
2018-09-09T07:50:38.890Z,57.56
2018-09-09T07:53:13.644Z,56.97
2018-09-09T07:55:47.823Z,57.03
2018-09-09T07:58:23.484Z,56.60
2018-09-09T08:00:58.985Z,55.62
2018-09-09T08:03:31.741Z,55.43
2018-09-09T08:06:05.442Z,55.35
2018-09-09T08:08:38.643Z,54.82
2018-09-09T08:11:11.297Z,54.73
2018-09-09T08:13:44.876Z,53.49
2018-09-09T08:16:19.480Z,51.49
2018-09-09T08:18:53.069Z,50.80
2018-09-09T08:21:26.666Z,50.57
2018-09-09T08:24:01.574Z,51.42
2018-09-09T08:26:34.920Z,50.85
2018-09-09T08:29:07.792Z,50.18
2018-09-09T08:31:43.421Z,50.12
2018-09-09T08:34:16.169Z,51.28
2018-09-09T08:36:49.037Z,51.39
2018-09-09T08:39:23.023Z,50.97
2018-09-09T08:41:56.317Z,51.65
2018-09-09T08:44:29.746Z,51.40
2018-09-09T08:47:02.969Z,51.03
2018-09-09T08:49:35.616Z,50.70
2018-09-09T08:52:10.130Z,50.07
2018-09-09T08:54:44.661Z,49.72
2018-09-09T08:57:18.225Z,49.56
2018-09-09T08:59:53.604Z,49.65
2018-09-09T09:02:29.624Z,49.54
2018-09-09T09:05:03.157Z,49.52
2018-09-09T09:07:38.389Z,49.69
2018-09-09T09:10:11.960Z,49.01
2018-09-09T09:12:46.594Z,49.22
2018-09-09T09:15:21.604Z,47.24
2018-09-09T09:17:55.195Z,44.53
2018-09-09T09:20:28.196Z,44.75
2018-09-09T09:23:02.152Z,44.20
2018-09-09T09:25:50.759Z,43.88
2018-09-09T09:28:27.135Z,41.39
2018-09-09T09:31:00.028Z,42.33
2018-09-09T09:33:37.119Z,44.16
2018-09-09T09:36:10.661Z,44.74
2018-09-09T09:38:43.216Z,45.83
2018-09-09T09:41:17.606Z,45.23
2018-09-09T09:43:50.299Z,44.28
2018-09-09T09:46:23.321Z,44.68
2018-09-09T09:48:56.914Z,43.88
2018-09-09T09:51:30.348Z,42.87
2018-09-09T09:54:03.626Z,42.40
2018-09-09T09:56:39.716Z,42.65
2018-09-09T09:59:12.860Z,42.67
2018-09-09T10:01:45.884Z,42.80
2018-09-09T10:04:18.716Z,43.58
2018-09-09T10:07:05.310Z,44.32
2018-09-09T10:09:39.399Z,43.99
2018-09-09T10:12:15.600Z,43.61
2018-09-09T10:14:48.573Z,42.81
2018-09-09T10:17:24.272Z,42.37
2018-09-09T10:19:59.592Z,40.81
2018-09-09T10:22:35.683Z,41.28
2018-09-09T10:25:11.622Z,41.92
2018-09-09T10:27:45.276Z,41.72
2018-09-09T10:30:17.197Z,41.91
2018-09-09T10:32:51.754Z,42.22
2018-09-09T10:35:25.547Z,41.04
2018-09-09T10:38:00.068Z,40.99
2018-09-09T10:40:32.845Z,42.18
2018-09-09T10:43:06.017Z,42.42
2018-09-09T10:45:40.988Z,42.06
2018-09-09T10:48:13.664Z,41.18
2018-09-09T10:50:48.620Z,41.04
2018-09-09T10:53:22.565Z,40.19
2018-09-09T10:55:57.279Z,40.84
2018-09-09T10:58:38.008Z,40.59
2018-09-09T11:01:11.436Z,41.74
2018-09-09T11:03:47.564Z,41.83
2018-09-09T11:06:23.280Z,41.58
2018-09-09T11:08:57.193Z,41.52
2018-09-09T11:11:30.392Z,42.31
2018-09-09T11:14:04.967Z,42.17
2018-09-09T11:16:38.222Z,42.03
2018-09-09T11:19:11.651Z,41.97
2018-09-09T11:21:44.949Z,41.35
2018-09-09T11:24:20.111Z,41.24
2018-09-09T11:27:03.064Z,40.61
2018-09-09T11:29:35.910Z,40.54
2018-09-09T11:32:10.004Z,40.03
2018-09-09T11:34:44.309Z,40.32
2018-09-09T11:37:21.407Z,40.72
2018-09-09T11:39:55.447Z,40.83
2018-09-09T11:42:28.413Z,40.56
2018-09-09T11:45:03.870Z,39.79
2018-09-09T11:47:36.798Z,40.32
2018-09-09T11:50:14.149Z,40.04
2018-09-09T11:52:48.514Z,40.10
2018-09-09T11:55:21.604Z,39.32
2018-09-09T11:57:56.246Z,40.04
2018-09-09T12:00:29.652Z,40.70
2018-09-09T12:03:02.357Z,40.06
2018-09-09T12:05:40.161Z,39.54
2018-09-09T12:08:14.228Z,39.60
2018-09-09T12:10:47.436Z,39.32
2018-09-09T12:13:21.940Z,38.95
2018-09-09T12:15:57.897Z,37.87
2018-09-09T12:18:31.195Z,38.06
2018-09-09T12:21:05.720Z,38.14
2018-09-09T12:23:41.026Z,37.95
2018-09-09T12:26:15.984Z,38.41
2018-09-09T12:28:49.999Z,39.14
2018-09-09T12:31:24.125Z,39.12
2018-09-09T12:33:56.837Z,39.75
2018-09-09T12:36:30.149Z,38.67
2018-09-09T12:39:06.925Z,39.23
2018-09-09T12:41:41.984Z,39.79
2018-09-09T12:44:36.329Z,39.31
2018-09-09T12:47:25.879Z,39.56
2018-09-09T12:50:00.585Z,38.98
2018-09-09T12:52:36.234Z,38.80
2018-09-09T12:55:09.492Z,38.34
2018-09-09T12:57:43.301Z,38.94
2018-09-09T13:00:16.949Z,38.67
2018-09-09T13:02:50.512Z,38.59
2018-09-09T13:05:24.750Z,38.95
2018-09-09T13:07:58.963Z,38.75
2018-09-09T13:10:31.612Z,38.73
2018-09-09T13:13:11.426Z,38.69
2018-09-09T13:15:45.644Z,38.44
2018-09-09T13:18:20.394Z,38.15
2018-09-09T13:20:56.800Z,38.23
2018-09-09T13:23:30.673Z,38.51
2018-09-09T13:26:04.456Z,38.51
2018-09-09T13:28:43.315Z,38.77
2018-09-09T13:31:18.277Z,38.99
2018-09-09T13:33:53.550Z,39.41
2018-09-09T13:36:26.636Z,39.42
2018-09-09T13:39:00.773Z,39.18
2018-09-09T13:41:35.406Z,39.49
2018-09-09T13:44:10.739Z,39.33
2018-09-09T13:46:43.457Z,39.96
2018-09-09T13:49:16.868Z,40.05
2018-09-09T13:51:49.951Z,40.29
2018-09-09T13:54:22.594Z,40.08
2018-09-09T13:56:57.407Z,40.32
2018-09-09T13:59:30.803Z,40.27
2018-09-09T14:02:03.403Z,40.06
2018-09-09T14:04:35.919Z,40.14
2018-09-09T14:07:09.419Z,39.79
2018-09-09T14:09:42.754Z,39.30
2018-09-09T14:12:18.176Z,38.37
2018-09-09T14:15:01.036Z,38.19
2018-09-09T14:17:35.394Z,36.84
2018-09-09T14:20:09.216Z,36.99
2018-09-09T14:22:42.822Z,37.61
2018-09-09T14:25:15.866Z,38.23
2018-09-09T14:27:48.965Z,38.70
2018-09-09T14:30:23.905Z,38.43
2018-09-09T14:32:56.473Z,38.48
2018-09-09T14:35:35.812Z,38.66
2018-09-09T14:38:08.373Z,38.88
2018-09-09T14:40:41.887Z,39.10
2018-09-09T14:43:16.778Z,39.17
2018-09-09T14:45:50.881Z,39.50
2018-09-09T14:48:33.447Z,39.36
2018-09-09T14:51:08.821Z,39.31
2018-09-09T14:53:44.682Z,38.40
2018-09-09T14:56:18.098Z,38.38
2018-09-09T14:58:59.005Z,38.35
2018-09-09T15:01:36.693Z,38.24
2018-09-09T15:04:11.871Z,38.18
2018-09-09T15:06:46.090Z,37.80
2018-09-09T15:09:20.279Z,37.82
2018-09-09T15:11:55.093Z,37.96
2018-09-09T15:14:30.877Z,37.79
2018-09-09T15:17:04.837Z,37.37
2018-09-09T15:19:39.303Z,37.18
2018-09-09T15:22:15.338Z,36.67
2018-09-09T15:24:49.272Z,36.10
2018-09-09T15:27:21.997Z,35.86
2018-09-09T15:29:54.919Z,35.80
2018-09-09T15:32:27.725Z,35.63
2018-09-09T15:35:00.723Z,36.04
2018-09-09T15:37:37.529Z,35.88
2018-09-09T15:40:12.773Z,35.76
2018-09-09T15:42:52.123Z,36.04
2018-09-09T15:45:31.059Z,36.16
2018-09-09T15:48:06.656Z,36.12
2018-09-09T15:50:41.320Z,35.42
2018-09-09T15:53:17.455Z,34.83
2018-09-09T15:55:58.333Z,34.34
2018-09-09T15:58:34.851Z,33.47
2018-09-09T16:01:33.926Z,33.07
2018-09-09T16:04:39.425Z,32.58
2018-09-09T16:07:14.851Z,32.21
2018-09-09T16:09:57.097Z,31.66
2018-09-09T16:12:39.514Z,32.25
2018-09-09T16:15:33.362Z,32.63
2018-09-09T16:18:13.368Z,33.05
2018-09-09T16:20:53.406Z,33.08
2018-09-09T16:23:30.649Z,33.59
2018-09-09T16:26:11.297Z,34.06
2018-09-09T16:28:46.768Z,34.18
2018-09-09T16:31:22.798Z,34.26
2018-09-09T16:34:00.539Z,34.19
2018-09-09T16:36:34.137Z,34.17
2018-09-09T16:39:25.037Z,33.86
2018-09-09T16:42:00.266Z,34.11
2018-09-09T16:44:34.878Z,34.04
2018-09-09T16:47:07.824Z,33.60
2018-09-09T16:49:43.657Z,33.53
2018-09-09T16:52:18.505Z,33.89
2018-09-09T16:54:54.678Z,34.34
2018-09-09T16:57:28.026Z,34.51
2018-09-09T17:00:10.093Z,34.76
2018-09-09T17:02:47.199Z,34.91
2018-09-09T17:05:21.985Z,34.95
2018-09-09T17:07:58.494Z,35.01
2018-09-09T17:10:31.905Z,35.34
2018-09-09T17:13:05.316Z,35.44
2018-09-09T17:15:39.468Z,35.92
2018-09-09T17:18:18.192Z,36.49
2018-09-09T17:20:51.830Z,37.86
2018-09-09T17:23:26.138Z,38.73
2018-09-09T17:26:01.088Z,39.51
2018-09-09T17:28:33.872Z,39.91
2018-09-09T17:31:06.649Z,39.78
2018-09-09T17:33:40.772Z,40.02
2018-09-09T17:36:14.945Z,40.38
2018-09-09T17:39:08.425Z,40.63
2018-09-09T17:41:44.206Z,41.35
2018-09-09T17:44:17.755Z,42.01
2018-09-09T17:46:56.401Z,42.43
2018-09-09T17:49:30.160Z,42.98
2018-09-09T17:52:03.788Z,43.63
2018-09-09T17:54:36.862Z,45.66
2018-09-09T17:57:13.423Z,45.96
2018-09-09T17:59:47.425Z,46.64
2018-09-09T18:02:22.097Z,47.51
2018-09-09T18:05:00.750Z,47.99
2018-09-09T18:07:34.565Z,48.96
2018-09-09T18:10:08.095Z,49.32
2018-09-09T18:12:45.454Z,49.90
2018-09-09T18:15:19.818Z,50.35
2018-09-09T18:17:58.070Z,50.99
2018-09-09T18:20:37.450Z,51.49
2018-09-09T18:23:16.329Z,53.38
2018-09-09T18:25:48.824Z,53.13
2018-09-09T18:28:24.417Z,53.29
2018-09-09T18:30:59.294Z,53.67
2018-09-09T18:33:34.503Z,55.89
2018-09-09T18:36:08.129Z,56.11
2018-09-09T18:38:45.732Z,56.53
2018-09-09T18:41:23.447Z,56.87
2018-09-09T18:43:59.201Z,57.03
2018-09-09T18:46:39.503Z,57.42
2018-09-09T18:49:14.436Z,59.73
2018-09-09T18:51:47.718Z,59.53
2018-09-09T18:54:23.731Z,59.85
2018-09-09T18:56:57.850Z,60.08
2018-09-09T18:59:31.928Z,60.40
2018-09-09T19:02:06.080Z,61.41
2018-09-09T19:04:42.907Z,61.95
2018-09-09T19:07:18.233Z,62.47
2018-09-09T19:09:57.441Z,62.90
2018-09-09T19:12:30.689Z,62.86
2018-09-09T19:15:09.589Z,62.97
2018-09-09T19:17:46.821Z,64.40
2018-09-09T19:20:27.445Z,65.32
2018-09-09T19:23:11.425Z,65.16
2018-09-09T19:25:47.376Z,65.14
2018-09-09T19:28:24.502Z,65.29
2018-09-09T19:31:02.517Z,65.04
2018-09-09T19:33:36.687Z,65.01
2018-09-09T19:36:11.548Z,64.88
2018-09-09T19:38:44.676Z,64.91
2018-09-09T19:41:20.058Z,64.86
2018-09-09T19:43:55.752Z,65.08
2018-09-09T19:46:31.507Z,65.27
2018-09-09T19:49:07.338Z,65.20
2018-09-09T19:51:40.244Z,65.29
2018-09-09T19:54:12.905Z,65.17
2018-09-09T19:56:47.722Z,65.39
2018-09-09T19:59:20.317Z,66.03
2018-09-09T20:01:54.044Z,66.25
2018-09-09T20:04:27.719Z,66.86
2018-09-09T20:07:01.765Z,68.34
2018-09-09T20:09:40.758Z,68.11
2018-09-09T20:12:16.617Z,68.88
2018-09-09T20:14:49.208Z,68.58
2018-09-09T20:17:23.266Z,68.66
2018-09-09T20:20:01.801Z,68.76
2018-09-09T20:22:35.809Z,68.96
2018-09-09T20:25:10.026Z,70.51
2018-09-09T20:27:43.003Z,71.19
2018-09-09T20:30:17.213Z,71.38
2018-09-09T20:32:51.072Z,71.12
2018-09-09T20:35:26.123Z,71.58
2018-09-09T20:38:00.553Z,71.51
2018-09-09T20:40:35.943Z,71.75
2018-09-09T20:43:15.270Z,71.99
2018-09-09T20:45:51.408Z,72.12
2018-09-09T20:48:26.912Z,72.42
2018-09-09T20:51:03.710Z,72.43
2018-09-09T20:53:42.410Z,72.61
2018-09-09T20:56:20.147Z,72.60
2018-09-09T20:59:08.791Z,72.57
2018-09-09T21:01:47.108Z,72.46
2018-09-09T21:04:22.991Z,72.42
2018-09-09T21:06:56.028Z,72.49
2018-09-09T21:09:28.986Z,72.74
2018-09-09T21:12:04.457Z,72.50
2018-09-09T21:14:38.714Z,72.23
2018-09-09T21:17:11.716Z,71.95
2018-09-09T21:19:48.545Z,71.87
2018-09-09T21:22:22.086Z,71.69
2018-09-09T21:24:54.669Z,71.62
2018-09-09T21:27:29.099Z,71.48
2018-09-09T21:30:09.655Z,71.32
2018-09-09T21:32:45.420Z,71.14
2018-09-09T21:35:18.485Z,70.90
2018-09-09T21:37:53.218Z,70.83
2018-09-09T21:40:27.144Z,70.58
2018-09-09T21:43:01.619Z,70.37
2018-09-09T21:45:34.363Z,70.06
2018-09-09T21:48:07.332Z,69.64
2018-09-09T21:50:43.000Z,68.94
2018-09-09T21:53:19.009Z,68.19
2018-09-09T21:55:52.834Z,67.52
2018-09-09T21:58:27.720Z,66.84
2018-09-09T22:01:07.333Z,66.02
2018-09-09T22:03:41.046Z,65.37
2018-09-09T22:06:14.528Z,64.69
2018-09-09T22:08:50.609Z,63.99
2018-09-09T22:11:23.332Z,63.39
2018-09-09T22:13:57.325Z,63.02
2018-09-09T22:16:29.956Z,62.78
2018-09-09T22:19:03.808Z,62.76
2018-09-09T22:21:41.100Z,62.62
2018-09-09T22:24:14.554Z,62.11
2018-09-09T22:26:47.211Z,61.83
2018-09-09T22:29:20.377Z,61.60
2018-09-09T22:31:53.004Z,61.53
2018-09-09T22:34:29.339Z,61.64
2018-09-09T22:37:05.438Z,61.69
2018-09-09T22:39:38.040Z,61.79
2018-09-09T22:42:10.970Z,61.66
2018-09-09T22:44:46.536Z,61.59
2018-09-09T22:47:21.313Z,61.31
2018-09-09T22:49:53.935Z,60.72
2018-09-09T22:52:26.480Z,60.28
2018-09-09T22:55:01.088Z,59.97
2018-09-09T22:57:34.780Z,59.83
2018-09-09T23:00:09.208Z,59.70
2018-09-09T23:02:43.669Z,59.67
2018-09-09T23:05:16.133Z,59.59
2018-09-09T23:07:48.716Z,59.48
2018-09-09T23:10:22.741Z,59.40
2018-09-09T23:12:55.317Z,59.30
2018-09-09T23:15:28.123Z,59.13
2018-09-09T23:18:03.376Z,58.87
2018-09-09T23:20:35.864Z,58.63
2018-09-09T23:23:08.889Z,58.61
2018-09-09T23:25:41.639Z,58.57
2018-09-09T23:28:15.272Z,58.62
2018-09-09T23:30:47.789Z,58.70
2018-09-09T23:33:22.348Z,58.80
2018-09-09T23:35:55.052Z,58.79
2018-09-09T23:38:27.615Z,58.71
2018-09-09T23:41:01.327Z,58.74
2018-09-09T23:43:34.026Z,58.75
2018-09-09T23:46:06.711Z,58.76
2018-09-09T23:48:40.655Z,58.89
2018-09-09T23:51:13.101Z,58.96
2018-09-09T23:53:46.335Z,58.98
2018-09-09T23:56:19.104Z,58.99
2018-09-09T23:58:51.783Z,58.98
